Time;durP1;ratioP1;P1;durP2;ratioP2;P2;SDS_P1;SDS_P2;PMS_P1;PMS_P2;Temp;Humidity;BMP_temperature;BMP_pressure;BME280_temperature;BME280_humidity;BME280_pressure;Samples;Min_cycle;Max_cycle;Signal;HPM_P1;HPM_P2
2023/03/30 00:00:57;;;;;;;11.25;2.85;;;14.20;99.90;;;;;;5035427;28;19909;-74
2023/03/30 00:03:23;;;;;;;5.50;2.17;;;14.20;99.90;;;;;;5040041;28;20087;-74
2023/03/30 00:05:56;;;;;;;5.60;2.20;;;14.30;99.90;;;;;;5037443;28;20025;-79
2023/03/30 00:08:28;;;;;;;4.45;1.63;;;14.30;99.90;;;;;;5038427;28;20641;-74
2023/03/30 00:11:14;;;;;;;3.90;1.92;;;14.30;99.90;;;;;;5035921;28;20053;-74
2023/03/30 00:13:41;;;;;;;3.33;1.83;;;14.40;99.90;;;;;;5058149;28;20025;-74
2023/03/30 00:16:10;;;;;;;6.18;1.77;;;14.30;99.90;;;;;;5055709;28;20047;-74
2023/03/30 00:18:38;;;;;;;7.03;2.22;;;14.30;99.90;;;;;;5054776;28;20107;-74
2023/03/30 00:21:05;;;;;;;3.10;1.73;;;14.30;99.90;;;;;;5055671;28;20094;-74
2023/03/30 00:23:31;;;;;;;7.40;2.30;;;14.30;99.90;;;;;;5054548;28;20079;-74
2023/03/30 00:25:57;;;;;;;4.15;2.15;;;14.30;99.90;;;;;;5043161;28;20076;-74
2023/03/30 00:28:25;;;;;;;3.45;1.90;;;14.30;99.90;;;;;;5035572;28;20032;-74
2023/03/30 00:30:52;;;;;;;4.65;1.90;;;14.30;99.90;;;;;;5035546;28;20025;-73
2023/03/30 00:33:18;;;;;;;4.85;2.05;;;14.30;99.90;;;;;;5035478;28;20033;-74
2023/03/30 00:35:54;;;;;;;1.92;1.63;;;14.40;99.90;;;;;;5051859;28;20048;-74
2023/03/30 00:38:20;;;;;;;3.00;2.20;;;14.40;99.90;;;;;;5055298;28;20370;-74
2023/03/30 00:40:58;;;;;;;9.65;2.45;;;14.40;99.90;;;;;;5055218;28;20044;-75
2023/03/30 00:43:25;;;;;;;2.35;1.83;;;14.40;99.90;;;;;;5054244;28;20034;-74
2023/03/30 00:45:51;;;;;;;4.20;2.35;;;14.30;99.90;;;;;;5054901;28;20052;-74
2023/03/30 00:48:27;;;;;;;14.13;2.30;;;14.30;99.90;;;;;;5045301;28;20394;-75
2023/03/30 00:51:03;;;;;;;2.95;1.63;;;14.30;99.90;;;;;;5048433;28;20378;-75
2023/03/30 00:53:41;;;;;;;3.40;1.75;;;14.20;99.90;;;;;;5040891;28;20021;-75
2023/03/30 00:56:10;;;;;;;4.55;1.80;;;14.20;99.90;;;;;;5045743;28;20021;-75
2023/03/30 00:58:37;;;;;;;5.00;1.95;;;14.10;99.90;;;;;;5050026;28;20587;-75
2023/03/30 01:01:06;;;;;;;3.28;2.03;;;14.00;99.90;;;;;;5038343;28;20029;-76
2023/03/30 01:03:42;;;;;;;3.83;1.75;;;14.00;99.90;;;;;;5033881;28;20033;-75
2023/03/30 01:06:08;;;;;;;3.13;1.75;;;13.90;99.90;;;;;;5033860;28;20021;-75
2023/03/30 01:08:36;;;;;;;2.80;1.73;;;13.90;99.90;;;;;;5034760;28;20147;-75
2023/03/30 01:11:03;;;;;;;5.18;2.35;;;13.90;99.90;;;;;;5033890;28;20037;-75
2023/03/30 01:13:31;;;;;;;9.10;2.30;;;13.90;99.90;;;;;;5035795;28;20029;-76
2023/03/30 01:16:02;;;;;;;;;;;13.90;99.90;;;;;;5035035;28;20422;-76
2023/03/30 01:18:43;;;;;;;3.58;1.45;;;13.90;99.90;;;;;;5034519;28;19916;-76
2023/03/30 01:21:30;;;;;;;5.18;1.92;;;13.90;99.90;;;;;;5046170;28;20055;-75
2023/03/30 01:24:14;;;;;;;2.00;1.20;;;13.90;99.90;;;;;;5054446;28;20041;-74
2023/03/30 01:26:54;;;;;;;5.93;1.75;;;13.90;99.90;;;;;;5048718;28;20033;-75
2023/03/30 01:29:35;;;;;;;9.73;1.90;;;13.90;99.90;;;;;;5043748;28;20033;-75
2023/03/30 01:32:26;;;;;;;5.18;1.48;;;13.90;99.90;;;;;;5054285;28;20025;-75
2023/03/30 01:35:22;;;;;;;3.38;1.67;;;13.90;99.90;;;;;;5044723;28;20028;-75
2023/03/30 01:38:02;;;;;;;1.40;1.30;;;13.90;99.90;;;;;;5034246;28;20065;-75
2023/03/30 01:41:09;;;;;;;7.80;2.28;;;13.90;99.90;;;;;;5037705;28;20406;-75
2023/03/30 01:43:43;;;;;;;9.90;1.58;;;13.90;99.90;;;;;;5034228;28;20049;-75
2023/03/30 01:46:29;;;;;;;6.82;1.60;;;13.90;99.90;;;;;;5032099;28;20061;-74
2023/03/30 01:49:16;;;;;;;4.85;2.35;;;13.90;99.90;;;;;;5033138;28;20025;-74
2023/03/30 01:51:49;;;;;;;4.20;1.75;;;13.90;99.90;;;;;;5045611;28;20033;-75
2023/03/30 01:54:30;;;;;;;3.40;1.50;;;13.80;99.90;;;;;;5051837;28;20021;-74
2023/03/30 01:57:05;;;;;;;5.13;3.13;;;13.80;99.90;;;;;;5045835;28;20071;-74
2023/03/30 01:59:38;;;;;;;4.95;1.80;;;13.80;99.90;;;;;;5053340;28;20033;-74
2023/03/30 02:02:06;;;;;;;5.82;2.00;;;13.80;99.90;;;;;;5052393;28;20036;-74
2023/03/30 02:04:37;;;;;;;4.47;1.80;;;13.70;99.90;;;;;;5045586;28;20100;-75
2023/03/30 02:07:11;;;;;;;6.55;1.50;;;13.70;99.90;;;;;;5033699;28;20037;-74
2023/03/30 02:09:40;;;;;;;5.13;1.63;;;13.70;99.90;;;;;;5036800;28;20031;-74
2023/03/30 02:12:08;;;;;;;4.88;1.40;;;13.70;99.90;;;;;;5033565;28;20033;-75
2023/03/30 02:14:37;;;;;;;2.47;1.58;;;13.70;99.90;;;;;;5049513;28;20025;-75
2023/03/30 02:17:12;;;;;;;4.50;2.63;;;13.60;99.90;;;;;;5053356;28;20032;-74
2023/03/30 02:19:38;;;;;;;5.22;1.55;;;13.60;99.90;;;;;;5050445;28;20021;-75
2023/03/30 02:22:05;;;;;;;5.57;1.88;;;13.60;99.90;;;;;;5053242;28;20036;-74
2023/03/30 02:24:31;;;;;;;10.00;1.90;;;13.50;99.90;;;;;;5053313;28;20025;-74
2023/03/30 02:27:00;;;;;;;2.42;1.65;;;13.50;99.90;;;;;;5053306;28;20021;-75
2023/03/30 02:29:27;;;;;;;4.80;1.45;;;13.50;99.90;;;;;;5051452;28;20033;-76
2023/03/30 02:31:56;;;;;;;4.63;1.70;;;13.50;99.90;;;;;;5053180;28;20079;-75
2023/03/30 02:34:21;;;;;;;4.45;1.38;;;13.50;99.90;;;;;;5053122;28;20035;-74
2023/03/30 02:37:31;;;;;;;11.00;2.03;;;13.50;99.90;;;;;;5053045;28;20103;-75
2023/03/30 02:40:25;;;;;;;5.05;1.63;;;13.60;99.90;;;;;;5032768;28;20060;-75
2023/03/30 02:43:12;;;;;;;4.90;2.53;;;13.60;99.90;;;;;;5033066;28;20037;-75
2023/03/30 02:46:00;;;;;;;3.33;1.67;;;13.60;99.90;;;;;;5048812;28;20071;-76
2023/03/30 02:48:37;;;;;;;3.88;1.80;;;13.70;99.90;;;;;;5051640;28;20493;-75
2023/03/30 02:51:25;;;;;;;3.80;2.28;;;13.70;99.90;;;;;;5046465;28;20029;-75
2023/03/30 02:53:57;;;;;;;3.97;1.45;;;13.70;99.90;;;;;;5031621;28;20033;-75
2023/03/30 02:56:32;;;;;;;1.80;1.50;;;13.70;99.90;;;;;;5034174;28;20519;-75
2023/03/30 02:59:15;;;;;;;7.28;2.50;;;13.80;99.90;;;;;;5037917;28;20420;-74
2023/03/30 03:01:48;;;;;;;7.03;1.73;;;13.80;99.90;;;;;;5052769;28;20025;-74
2023/03/30 03:04:17;;;;;;;5.15;1.40;;;13.80;99.90;;;;;;5051478;28;20033;-74
2023/03/30 03:06:43;;;;;;;9.73;1.40;;;13.90;99.90;;;;;;5030911;28;20061;-75
2023/03/30 03:09:08;;;;;;;3.90;1.42;;;13.90;99.90;;;;;;5032784;28;20390;-73
2023/03/30 03:11:34;;;;;;;7.05;1.40;;;13.80;99.90;;;;;;5032768;28;20028;-74
2023/03/30 03:14:00;;;;;;;5.28;1.40;;;13.80;99.90;;;;;;5036272;28;20435;-76
2023/03/30 03:16:26;;;;;;;6.50;1.80;;;13.80;99.90;;;;;;5052617;28;20029;-74
2023/03/30 03:18:52;;;;;;;1.95;1.20;;;13.80;99.90;;;;;;5050974;28;20505;-75
2023/03/30 03:21:18;;;;;;;1.90;1.42;;;13.70;99.90;;;;;;5038530;28;20036;-75
2023/03/30 03:23:47;;;;;;;4.65;1.20;;;13.80;99.90;;;;;;5048026;28;20025;-74
2023/03/30 03:26:12;;;;;;;7.82;1.65;;;13.70;99.90;;;;;;5041636;28;20025;-73
2023/03/30 03:28:38;;;;;;;6.80;1.77;;;13.70;99.90;;;;;;5052180;28;20097;-75
2023/03/30 03:31:04;;;;;;;4.10;1.42;;;13.70;99.90;;;;;;5051949;28;20109;-74
2023/03/30 03:33:30;;;;;;;2.55;1.10;;;13.70;99.90;;;;;;5049239;28;20465;-74
2023/03/30 03:35:59;;;;;;;4.45;1.40;;;13.70;99.90;;;;;;5032543;28;20037;-75
2023/03/30 03:38:25;;;;;;;4.30;1.48;;;13.70;99.90;;;;;;5041749;28;20504;-75
2023/03/30 03:40:56;;;;;;;4.13;1.17;;;13.70;99.90;;;;;;5033930;28;20108;-76
2023/03/30 03:43:22;;;;;;;4.28;1.15;;;13.70;99.90;;;;;;5032439;28;20033;-75
2023/03/30 03:45:49;;;;;;;2.25;1.10;;;13.70;99.90;;;;;;5048062;28;20037;-75
2023/03/30 03:48:16;;;;;;;2.47;1.20;;;13.80;99.90;;;;;;5052262;28;20028;-75
2023/03/30 03:50:43;;;;;;;6.47;1.60;;;13.70;99.90;;;;;;5045507;28;20021;-74
2023/03/30 03:53:09;;;;;;;2.78;0.82;;;13.80;99.90;;;;;;5032315;28;20060;-74
2023/03/30 03:55:35;;;;;;;3.25;0.93;;;13.80;99.90;;;;;;5031702;28;20092;-74
2023/03/30 03:58:02;;;;;;;2.15;0.80;;;13.80;99.90;;;;;;5031944;28;20022;-75
2023/03/30 04:00:28;;;;;;;0.47;0.47;;;13.80;99.90;;;;;;5046361;28;20573;-75
2023/03/30 04:02:54;;;;;;;1.60;0.90;;;13.80;99.90;;;;;;5037145;28;20104;-75
2023/03/30 04:05:20;;;;;;;7.57;1.35;;;13.80;99.90;;;;;;5052085;28;20056;-75
2023/03/30 04:07:46;;;;;;;5.10;0.90;;;13.80;99.90;;;;;;5034739;28;20101;-75
2023/03/30 04:10:13;;;;;;;5.28;1.27;;;13.80;99.90;;;;;;5031098;28;20021;-75
2023/03/30 04:12:39;;;;;;;6.27;1.13;;;13.80;99.90;;;;;;5044189;28;20036;-76
2023/03/30 04:15:06;;;;;;;4.55;1.38;;;13.80;99.90;;;;;;5050374;28;20112;-75
2023/03/30 04:17:35;;;;;;;4.47;1.10;;;13.90;99.90;;;;;;5051968;28;20032;-74
2023/03/30 04:20:08;;;;;;;8.55;1.83;;;13.90;99.90;;;;;;5053828;28;20120;-74
2023/03/30 04:22:36;;;;;;;5.53;1.08;;;13.90;99.90;;;;;;5055317;28;20017;-74
2023/03/30 04:25:05;;;;;;;6.80;1.05;;;13.90;99.90;;;;;;5053439;28;20025;-75
2023/03/30 04:27:31;;;;;;;8.32;1.30;;;13.90;99.90;;;;;;5055447;28;20013;-76
2023/03/30 04:29:57;;;;;;;4.07;1.10;;;13.90;99.90;;;;;;5053515;28;20397;-75
2023/03/30 04:32:26;;;;;;;7.03;1.40;;;13.90;99.90;;;;;;5053965;28;20024;-75
2023/03/30 04:34:53;;;;;;;6.45;1.45;;;13.90;99.90;;;;;;5052626;28;20090;-76
2023/03/30 04:37:29;;;;;;;2.88;1.73;;;13.90;99.90;;;;;;5055359;28;20489;-76
2023/03/30 04:39:56;;;;;;;5.20;1.10;;;13.80;99.90;;;;;;5046795;28;20034;-75
2023/03/30 04:42:29;;;;;;;7.72;2.65;;;13.60;99.90;;;;;;5036921;28;20044;-76
2023/03/30 04:44:57;;;;;;;9.65;1.13;;;13.60;99.90;;;;;;5044264;28;20500;-75
2023/03/30 04:47:27;;;;;;;7.60;1.83;;;13.50;99.90;;;;;;5042046;28;20512;-75
2023/03/30 04:49:52;;;;;;;9.10;1.35;;;13.40;99.90;;;;;;5036016;28;20049;-76
2023/03/30 04:52:19;;;;;;;10.30;1.30;;;13.30;99.90;;;;;;5034891;28;20436;-76
2023/03/30 04:54:45;;;;;;;8.65;1.60;;;13.30;99.90;;;;;;5034839;28;20382;-75
2023/03/30 04:57:12;;;;;;;10.13;2.08;;;13.20;99.90;;;;;;5033679;28;20032;-75
2023/03/30 04:59:39;;;;;;;14.75;1.90;;;13.10;99.90;;;;;;5047333;28;20108;-74
2023/03/30 05:02:05;;;;;;;7.47;1.50;;;13.10;99.90;;;;;;5054854;28;20394;-75
2023/03/30 05:04:31;;;;;;;7.30;1.60;;;13.00;99.90;;;;;;5046079;28;20018;-75
2023/03/30 05:06:56;;;;;;;8.10;2.40;;;13.00;99.90;;;;;;5034840;28;20084;-75
2023/03/30 05:09:23;;;;;;;4.90;1.42;;;12.90;99.90;;;;;;5034325;28;20053;-76
2023/03/30 05:11:49;;;;;;;10.10;2.33;;;12.90;99.90;;;;;;5034653;28;20561;-76
2023/03/30 05:14:14;;;;;;;7.20;1.77;;;12.80;99.90;;;;;;5033317;28;20026;-75
2023/03/30 05:16:40;;;;;;;14.60;2.15;;;12.80;99.90;;;;;;5034369;28;20099;-75
2023/03/30 05:19:06;;;;;;;10.05;2.25;;;12.70;99.90;;;;;;5034215;28;20029;-76
2023/03/30 05:21:32;;;;;;;22.55;4.82;;;12.70;99.90;;;;;;5034585;28;20375;-75
2023/03/30 05:23:57;;;;;;;17.00;1.63;;;12.80;99.90;;;;;;5032638;28;20035;-75
2023/03/30 05:26:23;;;;;;;9.65;2.30;;;12.70;99.90;;;;;;5034232;28;20017;-75
2023/03/30 05:28:50;;;;;;;9.73;1.75;;;12.60;99.90;;;;;;5035454;28;20037;-74
2023/03/30 05:31:16;;;;;;;7.70;1.80;;;12.60;99.90;;;;;;5054254;28;20156;-75
2023/03/30 05:33:42;;;;;;;11.05;2.78;;;12.50;99.90;;;;;;5048707;28;20037;-75
2023/03/30 05:36:08;;;;;;;13.65;2.40;;;12.50;99.90;;;;;;5034316;28;20057;-75
2023/03/30 05:38:34;;;;;;;18.38;3.20;;;12.40;99.90;;;;;;5034243;28;20036;-75
2023/03/30 05:41:01;;;;;;;12.45;2.08;;;12.40;99.90;;;;;;5033726;28;20363;-75
2023/03/30 05:43:27;;;;;;;12.90;2.13;;;12.40;99.90;;;;;;5039657;28;20084;-75
2023/03/30 05:45:54;;;;;;;15.00;2.40;;;12.40;99.90;;;;;;5046444;28;20033;-75
2023/03/30 05:48:20;;;;;;;19.30;2.95;;;12.40;99.90;;;;;;5042542;28;20037;-76
2023/03/30 05:50:48;;;;;;;11.75;2.05;;;12.40;99.90;;;;;;5035689;28;20485;-75
2023/03/30 05:53:15;;;;;;;15.88;2.95;;;12.40;99.90;;;;;;5037618;28;20087;-75
2023/03/30 05:55:45;;;;;;;15.55;3.42;;;12.40;99.90;;;;;;5033805;28;20060;-74
2023/03/30 05:58:12;;;;;;;14.57;2.53;;;12.40;99.90;;;;;;5048310;28;20489;-75
2023/03/30 06:00:40;;;;;;;9.75;2.47;;;12.40;99.90;;;;;;5053728;28;20036;-75
2023/03/30 06:03:09;;;;;;;11.70;2.65;;;12.40;99.90;;;;;;5051915;28;20056;-75
2023/03/30 06:05:40;;;;;;;7.32;2.25;;;12.40;99.90;;;;;;5053575;28;20021;-73
2023/03/30 06:08:07;;;;;;;13.95;2.83;;;12.30;99.90;;;;;;5051411;28;20389;-74
2023/03/30 06:10:33;;;;;;;14.40;2.03;;;12.30;99.90;;;;;;5038159;28;20147;-73
2023/03/30 06:12:59;;;;;;;17.92;2.63;;;12.30;99.90;;;;;;5053695;28;20508;-73
2023/03/30 06:15:25;;;;;;;24.30;2.55;;;12.40;99.90;;;;;;5051227;28;20098;-74
2023/03/30 06:17:51;;;;;;;18.90;2.40;;;12.50;99.90;;;;;;5035534;28;20037;-74
2023/03/30 06:20:20;;;;;;;10.43;1.98;;;12.60;99.90;;;;;;5033149;28;20031;-74
2023/03/30 06:22:46;;;;;;;16.88;4.05;;;12.70;99.90;;;;;;5032000;28;20045;-74
2023/03/30 06:25:12;;;;;;;13.93;2.92;;;12.90;99.90;;;;;;5034472;28;20033;-74
2023/03/30 06:27:38;;;;;;;17.67;2.15;;;12.90;99.90;;;;;;5033280;28;20075;-74
2023/03/30 06:30:04;;;;;;;17.10;1.80;;;13.00;99.90;;;;;;5051102;28;20385;-74
2023/03/30 06:32:30;;;;;;;16.33;3.83;;;13.00;99.90;;;;;;5037517;28;20492;-74
2023/03/30 06:34:56;;;;;;;11.73;2.00;;;13.00;99.90;;;;;;5031938;28;20116;-75
2023/03/30 06:37:21;;;;;;;7.65;1.52;;;12.90;99.90;;;;;;5033227;28;20075;-74
2023/03/30 06:39:47;;;;;;;15.02;2.28;;;12.90;99.90;;;;;;5031482;28;20068;-73
2023/03/30 06:42:13;;;;;;;16.70;1.83;;;12.90;99.90;;;;;;5035093;28;20028;-73
2023/03/30 06:44:38;;;;;;;14.18;2.30;;;12.90;99.90;;;;;;5047809;28;20111;-74
2023/03/30 06:47:04;;;;;;;18.58;1.88;;;12.90;99.90;;;;;;5049890;28;20057;-74
2023/03/30 06:49:31;;;;;;;13.95;2.38;;;12.90;99.90;;;;;;5033340;28;20025;-74
2023/03/30 06:51:56;;;;;;;10.15;2.22;;;12.90;99.90;;;;;;5045264;28;20021;-74
2023/03/30 06:54:23;;;;;;;10.93;2.22;;;12.80;99.90;;;;;;5052553;28;20035;-74
2023/03/30 06:56:49;;;;;;;16.50;2.50;;;12.80;99.90;;;;;;5052670;28;20024;-74
2023/03/30 06:59:15;;;;;;;18.77;3.03;;;12.80;99.90;;;;;;5051411;28;20052;-74
2023/03/30 07:01:41;;;;;;;20.75;2.40;;;12.80;99.90;;;;;;5052718;28;20037;-74
2023/03/30 07:04:07;;;;;;;15.85;2.40;;;12.80;99.90;;;;;;5052514;28;20507;-74
2023/03/30 07:06:33;;;;;;;22.10;2.90;;;12.70;99.90;;;;;;5043230;28;20025;-75
2023/03/30 07:09:00;;;;;;;18.70;2.17;;;12.70;99.90;;;;;;5047774;28;20025;-74
2023/03/30 07:11:26;;;;;;;16.15;2.72;;;12.80;99.90;;;;;;5049468;28;20115;-74
2023/03/30 07:13:55;;;;;;;15.32;2.05;;;12.80;99.90;;;;;;5032735;28;20168;-74
2023/03/30 07:16:20;;;;;;;23.08;2.97;;;12.80;99.90;;;;;;5032643;28;20044;-74
2023/03/30 07:18:46;;;;;;;19.35;4.25;;;12.90;99.90;;;;;;5032702;28;20464;-74
2023/03/30 07:21:12;;;;;;;21.98;3.78;;;12.90;99.90;;;;;;5030975;28;20426;-74
2023/03/30 07:23:37;;;;;;;22.10;2.35;;;13.00;99.90;;;;;;5035770;28;20025;-73
2023/03/30 07:26:03;;;;;;;20.77;2.60;;;13.10;99.90;;;;;;5032268;28;20120;-74
2023/03/30 07:28:29;;;;;;;19.92;2.88;;;13.10;99.90;;;;;;5032394;28;20520;-74
2023/03/30 07:31:04;;;;;;;25.75;2.42;;;13.10;99.90;;;;;;5032517;28;20478;-74
2023/03/30 07:33:30;;;;;;;28.70;3.50;;;13.10;99.90;;;;;;5031485;28;20037;-75
2023/03/30 07:35:56;;;;;;;17.70;2.40;;;13.10;99.90;;;;;;5036546;28;20071;-74
2023/03/30 07:38:23;;;;;;;17.45;3.03;;;13.10;99.90;;;;;;5032268;28;20065;-73
2023/03/30 07:40:48;;;;;;;17.52;2.78;;;13.30;99.90;;;;;;5031880;28;20450;-73
2023/03/30 07:43:14;;;;;;;33.63;4.22;;;13.50;99.90;;;;;;5035579;28;20116;-74
2023/03/30 07:45:40;;;;;;;20.60;2.72;;;13.70;99.90;;;;;;5041979;28;20495;-74
2023/03/30 07:48:05;;;;;;;20.33;3.30;;;13.80;99.90;;;;;;5032207;28;20521;-76
2023/03/30 07:50:31;;;;;;;10.55;2.00;;;14.00;99.90;;;;;;5032947;28;20021;-75
2023/03/30 07:52:57;;;;;;;26.65;3.08;;;14.10;99.90;;;;;;5044061;28;20097;-74
2023/03/30 07:55:23;;;;;;;16.55;2.97;;;14.10;99.90;;;;;;5043451;28;20544;-74
2023/03/30 07:57:48;;;;;;;18.67;2.83;;;14.20;99.90;;;;;;5041639;28;20028;-73
2023/03/30 08:00:14;;;;;;;13.68;2.97;;;14.20;99.90;;;;;;5051152;28;20033;-73
2023/03/30 08:02:41;;;;;;;17.85;3.13;;;14.30;99.90;;;;;;5054362;28;20029;-74
2023/03/30 08:05:08;;;;;;;12.23;2.15;;;14.30;99.90;;;;;;5049112;28;20501;-77
2023/03/30 08:07:34;;;;;;;15.88;3.08;;;14.30;99.90;;;;;;5054342;28;20094;-76
2023/03/30 08:10:00;;;;;;;15.25;2.63;;;14.40;99.90;;;;;;5038827;28;20026;-75
2023/03/30 08:12:27;;;;;;;21.30;2.85;;;14.50;99.90;;;;;;5036305;28;20087;-75
2023/03/30 08:14:54;;;;;;;15.30;2.40;;;14.50;99.90;;;;;;5046386;28;20040;-75
2023/03/30 08:17:20;;;;;;;15.18;2.80;;;14.50;99.90;;;;;;5034851;28;20508;-76
2023/03/30 08:19:47;;;;;;;24.50;2.95;;;14.50;99.90;;;;;;5038091;28;20030;-75
2023/03/30 08:22:13;;;;;;;15.48;2.55;;;14.40;99.90;;;;;;5040504;28;20381;-74
2023/03/30 08:24:39;;;;;;;19.17;2.45;;;14.40;99.90;;;;;;5043256;28;20426;-76
2023/03/30 08:27:05;;;;;;;21.20;3.65;;;14.20;99.90;;;;;;5045032;28;20025;-75
2023/03/30 08:29:32;;;;;;;18.48;2.65;;;14.20;99.90;;;;;;5045266;28;20029;-75
2023/03/30 08:31:58;;;;;;;25.70;3.50;;;14.20;99.90;;;;;;5045146;28;20395;-76
2023/03/30 08:34:24;;;;;;;19.08;2.63;;;14.20;99.90;;;;;;5037806;28;20234;-75
2023/03/30 08:36:49;;;;;;;14.23;2.05;;;14.10;99.90;;;;;;5046235;28;20025;-75
2023/03/30 08:39:15;;;;;;;17.27;3.33;;;14.10;99.90;;;;;;5067091;28;20032;-75
2023/03/30 08:41:52;;;;;;;22.35;3.30;;;13.80;99.90;;;;;;5041190;28;20066;-75
2023/03/30 08:44:36;;;;;;;15.83;3.60;;;13.90;99.90;;;;;;5044678;28;20021;-74
2023/03/30 08:47:05;;;;;;;16.67;3.83;;;13.80;99.90;;;;;;5038559;28;20304;-73
2023/03/30 08:49:37;;;;;;;16.77;3.97;;;14.10;99.90;;;;;;5034125;28;20024;-75
2023/03/30 08:52:05;;;;;;;12.02;2.60;;;14.30;99.90;;;;;;5040357;28;20034;-74
2023/03/30 08:54:31;;;;;;;17.35;3.67;;;14.20;99.90;;;;;;5036639;28;20039;-74
2023/03/30 08:57:17;;;;;;;21.92;2.92;;;14.10;99.90;;;;;;5035249;28;20034;-77
2023/03/30 08:59:55;;;;;;;14.10;3.42;;;14.10;99.90;;;;;;5033858;28;20188;-76
2023/03/30 09:02:27;;;;;;;15.18;2.17;;;14.10;99.90;;;;;;5045783;28;20168;-76
2023/03/30 09:05:04;;;;;;;25.55;3.92;;;14.10;99.90;;;;;;5048818;28;20086;-76
2023/03/30 09:07:36;;;;;;;22.35;3.38;;;14.20;99.90;;;;;;5052065;28;20508;-74
2023/03/30 09:10:03;;;;;;;19.77;2.50;;;14.20;99.90;;;;;;5035592;28;20041;-75
2023/03/30 09:12:40;;;;;;;20.15;3.15;;;14.30;99.90;;;;;;5044270;28;20040;-75
2023/03/30 09:15:19;;;;;;;18.15;4.47;;;14.40;99.90;;;;;;5033021;28;20065;-74
2023/03/30 09:17:49;;;;;;;18.40;3.05;;;14.60;99.90;;;;;;5032754;28;20052;-74
2023/03/30 09:20:21;;;;;;;21.42;3.55;;;14.70;99.90;;;;;;5032621;28;20033;-75
2023/03/30 09:22:48;;;;;;;21.30;3.63;;;14.70;99.90;;;;;;5032618;28;20056;-75
2023/03/30 09:25:20;;;;;;;23.15;3.78;;;14.70;99.90;;;;;;5034966;28;20037;-74
2023/03/30 09:28:03;;;;;;;21.77;4.60;;;14.70;99.90;;;;;;5052385;28;20037;-74
2023/03/30 09:30:41;;;;;;;26.38;3.20;;;14.90;99.90;;;;;;5051317;28;20033;-73
2023/03/30 09:33:22;;;;;;;21.25;3.17;;;14.90;99.90;;;;;;5051694;28;20499;-74
2023/03/30 09:36:08;;;;;;;13.07;2.90;;;14.80;99.90;;;;;;5050200;28;20485;-73
2023/03/30 09:38:40;;;;;;;21.88;4.68;;;14.80;99.90;;;;;;5046075;28;20033;-74
2023/03/30 09:41:09;;;;;;;21.60;3.75;;;14.80;99.90;;;;;;5034938;28;20094;-74
2023/03/30 09:43:43;;;;;;;29.48;3.67;;;14.80;99.90;;;;;;5033671;28;20087;-76
2023/03/30 09:46:09;;;;;;;26.75;3.67;;;14.60;99.90;;;;;;5067620;28;20045;-74
2023/03/30 09:48:48;;;;;;;19.23;4.07;;;14.70;99.90;;;;;;5052973;28;20036;-74
2023/03/30 09:51:21;;;;;;;18.75;3.88;;;14.80;99.90;;;;;;5052648;28;20083;-73
2023/03/30 09:53:50;;;;;;;23.02;3.88;;;14.90;99.90;;;;;;5052526;28;20034;-74
2023/03/30 09:56:45;;;;;;;23.25;3.42;;;15.10;99.90;;;;;;5040175;28;20113;-73
2023/03/30 09:59:28;;;;;;;26.35;3.50;;;15.40;99.90;;;;;;5033230;28;20485;-73
2023/03/30 10:02:17;;;;;;;18.42;3.13;;;15.60;99.90;;;;;;5032564;28;20034;-73
2023/03/30 10:05:03;;;;;;;27.52;3.47;;;15.80;99.90;;;;;;5033831;28;20060;-73
2023/03/30 10:07:36;;;;;;;14.70;2.90;;;15.80;99.90;;;;;;5033821;28;20516;-74
2023/03/30 10:10:15;;;;;;;24.98;3.00;;;15.60;99.90;;;;;;5033769;28;20025;-75
2023/03/30 10:12:41;;;;;;;26.95;3.85;;;15.60;99.90;;;;;;5032716;28;20033;-74
2023/03/30 10:15:15;;;;;;;20.67;3.10;;;15.70;99.90;;;;;;5033728;28;20040;-74
2023/03/30 10:17:41;;;;;;;20.27;3.45;;;15.50;99.90;;;;;;5033638;28;20088;-74
2023/03/30 10:20:37;;;;;;;18.70;3.75;;;15.60;99.90;;;;;;5033600;28;20026;-73
2023/03/30 10:23:15;;;;;;;27.77;4.00;;;15.60;99.90;;;;;;5024279;28;20551;-73
2023/03/30 10:25:42;;;;;;;24.42;2.90;;;15.60;99.90;;;;;;5038708;28;20112;-73
2023/03/30 10:28:20;;;;;;;13.48;2.63;;;15.40;99.90;;;;;;5033296;28;20493;-73
2023/03/30 10:30:52;;;;;;;18.33;2.30;;;15.30;99.90;;;;;;5047900;28;20022;-73
2023/03/30 10:33:18;;;;;;;29.35;3.88;;;15.10;99.90;;;;;;5049913;28;20128;-73
2023/03/30 10:35:47;;;;;;;28.67;3.33;;;15.10;99.90;;;;;;5051766;28;20033;-74
2023/03/30 10:38:14;;;;;;;16.77;3.17;;;15.00;99.90;;;;;;5039713;28;20041;-73
2023/03/30 10:40:42;;;;;;;30.85;3.33;;;15.10;99.90;;;;;;5052994;28;20041;-74
2023/03/30 10:43:19;;;;;;;14.80;2.72;;;15.50;99.90;;;;;;5044436;28;20385;-74
2023/03/30 10:45:52;;;;;;;23.85;4.90;;;15.60;99.90;;;;;;5033730;28;20049;-73
2023/03/30 10:48:36;;;;;;;25.10;2.67;;;15.60;99.90;;;;;;5053105;28;20051;-74
2023/03/30 10:51:33;;;;;;;22.17;2.83;;;15.30;99.90;;;;;;5053021;28;20441;-74
2023/03/30 10:54:25;;;;;;;15.43;3.03;;;15.10;99.90;;;;;;5051691;28;20033;-74
2023/03/30 10:57:00;;;;;;;31.20;3.72;;;15.00;99.90;;;;;;5032896;28;20033;-74
2023/03/30 10:59:31;;;;;;;20.63;3.25;;;15.00;99.90;;;;;;5034769;28;20037;-75
2023/03/30 11:02:26;;;;;;;24.25;4.10;;;15.00;99.90;;;;;;5032921;28;20044;-74
2023/03/30 11:05:06;;;;;;;16.20;2.53;;;14.80;99.90;;;;;;5049734;28;20039;-74
2023/03/30 11:07:40;;;;;;;16.45;3.03;;;15.00;99.90;;;;;;5050492;28;20524;-74
2023/03/30 11:10:30;;;;;;;25.70;3.75;;;15.30;99.90;;;;;;5050667;28;20045;-74
2023/03/30 11:13:03;;;;;;;20.33;3.05;;;15.50;99.90;;;;;;5050662;28;20036;-74
2023/03/30 11:15:57;;;;;;;25.92;2.95;;;15.80;99.90;;;;;;5047734;28;20079;-74
2023/03/30 11:18:37;;;;;;;20.35;3.53;;;15.80;99.90;;;;;;5033965;28;20039;-74
2023/03/30 11:21:37;;;;;;;17.27;3.60;;;15.60;99.90;;;;;;5049522;28;20398;-75
2023/03/30 11:24:11;;;;;;;20.20;2.63;;;15.50;99.90;;;;;;5050378;28;20037;-73
2023/03/30 11:27:00;;;;;;;18.77;3.60;;;15.40;99.90;;;;;;5050479;28;20040;-75
2023/03/30 11:29:28;;;;;;;18.08;2.58;;;15.50;99.90;;;;;;5043929;28;20508;-73
2023/03/30 11:32:18;;;;;;;26.55;3.40;;;15.80;99.90;;;;;;5045284;28;20133;-73
2023/03/30 11:35:12;;;;;;;14.02;2.78;;;16.00;99.90;;;;;;5034652;28;20038;-76
2023/03/30 11:38:01;;;;;;;21.58;3.92;;;15.80;99.90;;;;;;5042540;28;20033;-73
2023/03/30 11:40:43;;;;;;;13.23;2.80;;;15.70;99.90;;;;;;5055079;28;20413;-73
2023/03/30 11:43:21;;;;;;;22.98;3.05;;;15.70;99.90;;;;;;5056343;28;20029;-75
2023/03/30 11:46:05;;;;;;;29.08;3.78;;;15.90;99.90;;;;;;5056343;28;20094;-75
2023/03/30 11:49:00;;;;;;;23.55;2.88;;;16.00;99.90;;;;;;5056537;28;20036;-74
2023/03/30 11:51:53;;;;;;;9.82;2.15;;;16.00;99.90;;;;;;5056632;28;20033;-74
2023/03/30 11:54:30;;;;;;;18.30;2.85;;;15.90;99.90;;;;;;5056133;28;20041;-74
2023/03/30 11:57:29;;;;;;;15.20;2.50;;;15.70;99.90;;;;;;5056603;28;20040;-74
2023/03/30 12:00:07;;;;;;;20.40;2.85;;;15.70;99.90;;;;;;5056306;28;20040;-74
2023/03/30 12:02:38;;;;;;;19.00;3.13;;;15.90;99.90;;;;;;5056082;28;20107;-74
2023/03/30 12:05:07;;;;;;;14.65;2.85;;;16.00;99.90;;;;;;5056475;28;20081;-73
2023/03/30 12:07:56;;;;;;;18.08;2.85;;;16.00;99.90;;;;;;5056502;28;20025;-74
2023/03/30 12:10:39;;;;;;;20.25;2.88;;;15.80;99.90;;;;;;5054833;28;20158;-73
2023/03/30 12:13:09;;;;;;;31.58;3.97;;;15.70;99.90;;;;;;5036206;28;20029;-73
2023/03/30 12:15:54;;;;;;;17.85;3.22;;;15.60;99.90;;;;;;5036334;28;20393;-73
2023/03/30 12:18:56;;;;;;;20.00;3.58;;;15.60;99.90;;;;;;5035961;28;20104;-74
2023/03/30 12:21:40;;;;;;;16.42;3.40;;;15.80;99.90;;;;;;5036060;28;20033;-73
2023/03/30 12:24:19;;;;;;;19.98;2.33;;;16.00;99.90;;;;;;5035800;28;20044;-74
2023/03/30 12:26:45;;;;;;;25.88;3.67;;;16.20;99.90;;;;;;5035768;28;20386;-74
2023/03/30 12:29:12;;;;;;;15.13;2.83;;;16.10;99.90;;;;;;5048832;28;20432;-74
2023/03/30 12:32:01;;;;;;;19.23;2.47;;;16.20;99.90;;;;;;5048952;28;20017;-74
2023/03/30 12:34:31;;;;;;;19.23;3.65;;;16.10;99.90;;;;;;5034857;28;20505;-74
2023/03/30 12:37:21;;;;;;;10.20;3.03;;;16.00;99.90;;;;;;5034347;28;20041;-74
2023/03/30 12:40:17;;;;;;;20.70;3.25;;;16.30;99.90;;;;;;5043406;28;20112;-74
2023/03/30 12:43:15;;;;;;;22.33;3.20;;;16.40;99.90;;;;;;5037504;28;20025;-74
2023/03/30 12:46:04;;;;;;;16.42;3.35;;;16.40;99.90;;;;;;5035280;28;20034;-74
2023/03/30 12:48:40;;;;;;;32.10;3.53;;;16.20;99.90;;;;;;5040001;28;20025;-74
2023/03/30 12:51:40;;;;;;;25.13;3.20;;;15.90;99.90;;;;;;5049243;28;20120;-73
2023/03/30 12:54:23;;;;;;;28.73;3.20;;;15.50;99.90;;;;;;5049904;28;20035;-74
2023/03/30 12:57:07;;;;;;;21.33;3.33;;;15.40;99.90;;;;;;5039478;28;20497;-74
2023/03/30 12:59:54;;;;;;;20.88;3.50;;;15.40;99.90;;;;;;5048897;28;20037;-73
2023/03/30 13:02:54;;;;;;;31.65;3.00;;;15.30;99.90;;;;;;5044465;28;20482;-74
2023/03/30 13:05:26;;;;;;;21.40;4.22;;;15.30;99.90;;;;;;5036881;28;20055;-73
2023/03/30 13:07:54;;;;;;;22.50;2.90;;;15.10;99.90;;;;;;5044863;28;20025;-74